sensor_id;sensor_type;location;lat;lon;timestamp;temperature;humidity
20650;DHT22;10484;48.736;9.332;2023-05-14T00:00:11;12.90;1.00
20650;DHT22;10484;48.736;9.332;2023-05-14T00:02:36;12.80;1.00
20650;DHT22;10484;48.736;9.332;2023-05-14T00:05:02;12.80;1.00
20650;DHT22;10484;48.736;9.332;2023-05-14T00:07:28;12.80;1.00
20650;DHT22;10484;48.736;9.332;2023-05-14T00:09:56;12.80;1.00
20650;DHT22;10484;48.736;9.332;2023-05-14T00:12:21;12.80;1.00
20650;DHT22;10484;48.736;9.332;2023-05-14T00:14:47;12.80;1.00
20650;DHT22;10484;48.736;9.332;2023-05-14T00:17:12;12.80;1.00
20650;DHT22;10484;48.736;9.332;2023-05-14T00:19:38;12.80;1.00
20650;DHT22;10484;48.736;9.332;2023-05-14T00:22:07;12.80;1.00
20650;DHT22;10484;48.736;9.332;2023-05-14T00:24:33;12.80;1.00
20650;DHT22;10484;48.736;9.332;2023-05-14T00:26:58;12.80;1.00
20650;DHT22;10484;48.736;9.332;2023-05-14T00:29:24;12.80;1.00
20650;DHT22;10484;48.736;9.332;2023-05-14T00:31:50;12.70;1.00
20650;DHT22;10484;48.736;9.332;2023-05-14T00:34:15;12.80;1.00
20650;DHT22;10484;48.736;9.332;2023-05-14T00:36:41;12.70;1.00
20650;DHT22;10484;48.736;9.332;2023-05-14T00:39:06;12.70;1.00
20650;DHT22;10484;48.736;9.332;2023-05-14T00:41:32;12.70;1.00
20650;DHT22;10484;48.736;9.332;2023-05-14T00:43:58;12.70;1.00
20650;DHT22;10484;48.736;9.332;2023-05-14T00:46:23;12.70;1.00
20650;DHT22;10484;48.736;9.332;2023-05-14T00:48:49;12.60;1.00
20650;DHT22;10484;48.736;9.332;2023-05-14T00:51:15;12.70;1.00
20650;DHT22;10484;48.736;9.332;2023-05-14T00:53:41;12.60;1.00
20650;DHT22;10484;48.736;9.332;2023-05-14T00:56:07;12.60;1.00
20650;DHT22;10484;48.736;9.332;2023-05-14T00:58:33;12.60;1.00
20650;DHT22;10484;48.736;9.332;2023-05-14T01:00:59;12.50;1.00
20650;DHT22;10484;48.736;9.332;2023-05-14T01:03:25;12.50;1.00
20650;DHT22;10484;48.736;9.332;2023-05-14T01:14:20;12.30;1.00
20650;DHT22;10484;48.736;9.332;2023-05-14T01:16:49;12.30;1.00
20650;DHT22;10484;48.736;9.332;2023-05-14T01:19:42;12.20;1.00
20650;DHT22;10484;48.736;9.332;2023-05-14T01:22:06;12.20;1.00
20650;DHT22;10484;48.736;9.332;2023-05-14T01:24:32;12.10;1.00
20650;DHT22;10484;48.736;9.332;2023-05-14T01:29:37;12.10;1.00
20650;DHT22;10484;48.736;9.332;2023-05-14T01:32:05;12.10;1.00
20650;DHT22;10484;48.736;9.332;2023-05-14T01:34:32;12.10;1.00
20650;DHT22;10484;48.736;9.332;2023-05-14T01:36:59;12.10;1.00
20650;DHT22;10484;48.736;9.332;2023-05-14T01:39:26;12.00;1.00
20650;DHT22;10484;48.736;9.332;2023-05-14T01:41:52;12.00;1.00
20650;DHT22;10484;48.736;9.332;2023-05-14T01:44:19;12.00;1.00
20650;DHT22;10484;48.736;9.332;2023-05-14T01:46:45;12.00;1.00
20650;DHT22;10484;48.736;9.332;2023-05-14T01:49:11;12.00;1.00
20650;DHT22;10484;48.736;9.332;2023-05-14T01:51:36;11.90;1.00
20650;DHT22;10484;48.736;9.332;2023-05-14T01:54:02;11.90;1.00
20650;DHT22;10484;48.736;9.332;2023-05-14T01:56:28;11.90;1.00
20650;DHT22;10484;48.736;9.332;2023-05-14T01:58:53;11.90;1.00
20650;DHT22;10484;48.736;9.332;2023-05-14T02:01:21;11.80;1.00
20650;DHT22;10484;48.736;9.332;2023-05-14T02:03:46;11.90;1.00
20650;DHT22;10484;48.736;9.332;2023-05-14T02:06:12;11.80;1.00
20650;DHT22;10484;48.736;9.332;2023-05-14T02:08:38;11.80;1.00
20650;DHT22;10484;48.736;9.332;2023-05-14T02:11:03;11.80;1.00
20650;DHT22;10484;48.736;9.332;2023-05-14T02:13:29;11.80;1.00
20650;DHT22;10484;48.736;9.332;2023-05-14T02:15:54;11.80;1.00
20650;DHT22;10484;48.736;9.332;2023-05-14T02:18:20;11.80;1.00
20650;DHT22;10484;48.736;9.332;2023-05-14T02:20:46;11.80;1.00
20650;DHT22;10484;48.736;9.332;2023-05-14T02:23:11;11.70;1.00
20650;DHT22;10484;48.736;9.332;2023-05-14T02:25:37;11.70;1.00
20650;DHT22;10484;48.736;9.332;2023-05-14T02:28:02;11.70;1.00
20650;DHT22;10484;48.736;9.332;2023-05-14T02:30:28;11.70;1.00
20650;DHT22;10484;48.736;9.332;2023-05-14T02:32:55;11.70;1.00
20650;DHT22;10484;48.736;9.332;2023-05-14T02:35:21;11.70;1.00
20650;DHT22;10484;48.736;9.332;2023-05-14T02:37:47;11.70;1.00
20650;DHT22;10484;48.736;9.332;2023-05-14T02:40:13;11.70;1.00
20650;DHT22;10484;48.736;9.332;2023-05-14T02:42:38;11.70;1.00
20650;DHT22;10484;48.736;9.332;2023-05-14T02:45:04;11.70;1.00
20650;DHT22;10484;48.736;9.332;2023-05-14T02:47:30;11.70;1.00
20650;DHT22;10484;48.736;9.332;2023-05-14T02:49:56;11.70;1.00
20650;DHT22;10484;48.736;9.332;2023-05-14T02:52:21;11.70;1.00
20650;DHT22;10484;48.736;9.332;2023-05-14T02:54:47;11.70;1.00
20650;DHT22;10484;48.736;9.332;2023-05-14T02:57:13;11.60;1.00
20650;DHT22;10484;48.736;9.332;2023-05-14T02:59:38;11.70;1.00
20650;DHT22;10484;48.736;9.332;2023-05-14T03:02:04;11.70;1.00
20650;DHT22;10484;48.736;9.332;2023-05-14T03:04:29;11.70;1.00
20650;DHT22;10484;48.736;9.332;2023-05-14T03:06:55;11.70;1.00
20650;DHT22;10484;48.736;9.332;2023-05-14T03:09:20;11.70;1.00
20650;DHT22;10484;48.736;9.332;2023-05-14T03:11:46;11.70;1.00
20650;DHT22;10484;48.736;9.332;2023-05-14T03:14:12;11.70;1.00
20650;DHT22;10484;48.736;9.332;2023-05-14T03:16:37;11.70;1.00
20650;DHT22;10484;48.736;9.332;2023-05-14T03:19:04;11.70;1.00
20650;DHT22;10484;48.736;9.332;2023-05-14T03:21:29;11.70;1.00
20650;DHT22;10484;48.736;9.332;2023-05-14T03:23:56;11.70;1.00
20650;DHT22;10484;48.736;9.332;2023-05-14T03:26:21;11.70;1.00
20650;DHT22;10484;48.736;9.332;2023-05-14T03:28:47;11.70;1.00
20650;DHT22;10484;48.736;9.332;2023-05-14T03:31:13;11.70;1.00
20650;DHT22;10484;48.736;9.332;2023-05-14T03:33:39;11.70;1.00
20650;DHT22;10484;48.736;9.332;2023-05-14T03:36:05;11.70;1.00
20650;DHT22;10484;48.736;9.332;2023-05-14T03:38:30;11.70;1.00
20650;DHT22;10484;48.736;9.332;2023-05-14T03:40:56;11.70;1.00
20650;DHT22;10484;48.736;9.332;2023-05-14T03:43:22;11.70;1.00
20650;DHT22;10484;48.736;9.332;2023-05-14T03:45:48;11.70;1.00
20650;DHT22;10484;48.736;9.332;2023-05-14T03:48:17;11.80;1.00
20650;DHT22;10484;48.736;9.332;2023-05-14T03:50:42;11.80;1.00
20650;DHT22;10484;48.736;9.332;2023-05-14T03:53:08;11.80;1.00
20650;DHT22;10484;48.736;9.332;2023-05-14T03:55:33;11.80;1.00
20650;DHT22;10484;48.736;9.332;2023-05-14T03:57:59;11.80;1.00
20650;DHT22;10484;48.736;9.332;2023-05-14T04:00:25;11.80;1.00
20650;DHT22;10484;48.736;9.332;2023-05-14T04:02:50;11.80;1.00
20650;DHT22;10484;48.736;9.332;2023-05-14T04:05:16;11.80;1.00
20650;DHT22;10484;48.736;9.332;2023-05-14T04:07:41;11.80;1.00
20650;DHT22;10484;48.736;9.332;2023-05-14T04:10:07;11.80;1.00
20650;DHT22;10484;48.736;9.332;2023-05-14T04:12:33;11.80;1.00
20650;DHT22;10484;48.736;9.332;2023-05-14T04:14:59;11.80;1.00
20650;DHT22;10484;48.736;9.332;2023-05-14T04:17:25;11.80;1.00
20650;DHT22;10484;48.736;9.332;2023-05-14T04:19:51;11.80;1.00
20650;DHT22;10484;48.736;9.332;2023-05-14T04:22:16;11.80;1.00
20650;DHT22;10484;48.736;9.332;2023-05-14T04:24:42;11.80;1.00
20650;DHT22;10484;48.736;9.332;2023-05-14T04:27:07;11.80;1.00
20650;DHT22;10484;48.736;9.332;2023-05-14T04:29:33;11.80;1.00
20650;DHT22;10484;48.736;9.332;2023-05-14T04:31:58;11.80;1.00
20650;DHT22;10484;48.736;9.332;2023-05-14T04:34:24;11.80;1.00
20650;DHT22;10484;48.736;9.332;2023-05-14T04:36:50;11.80;1.00
20650;DHT22;10484;48.736;9.332;2023-05-14T04:39:16;11.80;1.00
20650;DHT22;10484;48.736;9.332;2023-05-14T04:41:43;11.80;1.00
20650;DHT22;10484;48.736;9.332;2023-05-14T04:44:08;11.80;1.00
20650;DHT22;10484;48.736;9.332;2023-05-14T04:46:34;11.80;1.00
20650;DHT22;10484;48.736;9.332;2023-05-14T04:49:00;11.80;1.00
20650;DHT22;10484;48.736;9.332;2023-05-14T04:51:26;11.80;1.00
20650;DHT22;10484;48.736;9.332;2023-05-14T04:53:52;11.80;1.00
20650;DHT22;10484;48.736;9.332;2023-05-14T04:56:17;11.80;1.00
20650;DHT22;10484;48.736;9.332;2023-05-14T04:58:43;11.80;1.00
20650;DHT22;10484;48.736;9.332;2023-05-14T05:01:08;11.80;1.00
20650;DHT22;10484;48.736;9.332;2023-05-14T05:03:34;11.80;1.00
20650;DHT22;10484;48.736;9.332;2023-05-14T05:05:59;11.80;1.00
20650;DHT22;10484;48.736;9.332;2023-05-14T05:08:25;11.90;1.00
20650;DHT22;10484;48.736;9.332;2023-05-14T05:10:51;11.90;1.00
20650;DHT22;10484;48.736;9.332;2023-05-14T05:13:16;11.90;1.00
20650;DHT22;10484;48.736;9.332;2023-05-14T05:15:42;11.90;1.00
20650;DHT22;10484;48.736;9.332;2023-05-14T05:18:08;11.90;1.00
20650;DHT22;10484;48.736;9.332;2023-05-14T05:20:34;11.90;1.00
20650;DHT22;10484;48.736;9.332;2023-05-14T05:22:59;11.90;1.00
20650;DHT22;10484;48.736;9.332;2023-05-14T05:25:26;11.90;1.00
20650;DHT22;10484;48.736;9.332;2023-05-14T05:27:51;12.00;1.00
20650;DHT22;10484;48.736;9.332;2023-05-14T05:30:17;11.90;1.00
20650;DHT22;10484;48.736;9.332;2023-05-14T05:32:42;12.00;1.00
20650;DHT22;10484;48.736;9.332;2023-05-14T05:35:08;11.90;1.00
20650;DHT22;10484;48.736;9.332;2023-05-14T05:37:34;12.00;1.00
20650;DHT22;10484;48.736;9.332;2023-05-14T05:39:59;11.90;1.00
20650;DHT22;10484;48.736;9.332;2023-05-14T05:42:25;12.00;1.00
20650;DHT22;10484;48.736;9.332;2023-05-14T05:44:51;12.00;1.00
20650;DHT22;10484;48.736;9.332;2023-05-14T05:47:16;12.00;1.00
20650;DHT22;10484;48.736;9.332;2023-05-14T05:49:42;12.00;1.00
20650;DHT22;10484;48.736;9.332;2023-05-14T05:52:07;12.00;1.00
20650;DHT22;10484;48.736;9.332;2023-05-14T05:54:33;12.00;1.00
20650;DHT22;10484;48.736;9.332;2023-05-14T05:56:59;12.00;1.00
20650;DHT22;10484;48.736;9.332;2023-05-14T05:59:25;12.00;1.00
20650;DHT22;10484;48.736;9.332;2023-05-14T06:01:50;12.00;1.00
20650;DHT22;10484;48.736;9.332;2023-05-14T06:04:16;12.00;1.00
20650;DHT22;10484;48.736;9.332;2023-05-14T06:06:41;12.00;1.00
20650;DHT22;10484;48.736;9.332;2023-05-14T06:09:07;12.00;1.00
20650;DHT22;10484;48.736;9.332;2023-05-14T06:11:34;12.00;1.00
20650;DHT22;10484;48.736;9.332;2023-05-14T06:14:00;12.00;1.00
20650;DHT22;10484;48.736;9.332;2023-05-14T06:16:25;12.00;1.00
20650;DHT22;10484;48.736;9.332;2023-05-14T06:18:52;12.00;1.00
20650;DHT22;10484;48.736;9.332;2023-05-14T06:21:19;12.10;1.00
20650;DHT22;10484;48.736;9.332;2023-05-14T06:23:44;12.10;1.00
20650;DHT22;10484;48.736;9.332;2023-05-14T06:26:10;12.10;1.00
20650;DHT22;10484;48.736;9.332;2023-05-14T06:28:35;12.10;1.00
20650;DHT22;10484;48.736;9.332;2023-05-14T06:31:01;12.10;1.00
20650;DHT22;10484;48.736;9.332;2023-05-14T06:33:27;12.10;1.00
20650;DHT22;10484;48.736;9.332;2023-05-14T06:36:04;12.10;1.00
20650;DHT22;10484;48.736;9.332;2023-05-14T06:38:30;12.10;1.00
20650;DHT22;10484;48.736;9.332;2023-05-14T06:40:55;12.10;1.00
20650;DHT22;10484;48.736;9.332;2023-05-14T06:43:21;12.10;1.00
20650;DHT22;10484;48.736;9.332;2023-05-14T06:45:51;12.10;1.00
20650;DHT22;10484;48.736;9.332;2023-05-14T06:48:17;12.20;1.00
20650;DHT22;10484;48.736;9.332;2023-05-14T06:50:47;12.10;1.00
20650;DHT22;10484;48.736;9.332;2023-05-14T06:53:13;12.10;1.00
20650;DHT22;10484;48.736;9.332;2023-05-14T06:55:39;12.20;1.00
20650;DHT22;10484;48.736;9.332;2023-05-14T06:58:06;12.20;1.00
20650;DHT22;10484;48.736;9.332;2023-05-14T07:00:31;12.20;1.00
20650;DHT22;10484;48.736;9.332;2023-05-14T07:02:57;12.20;1.00
20650;DHT22;10484;48.736;9.332;2023-05-14T07:05:23;12.20;1.00
20650;DHT22;10484;48.736;9.332;2023-05-14T07:07:49;12.30;1.00
20650;DHT22;10484;48.736;9.332;2023-05-14T07:10:14;12.30;1.00
20650;DHT22;10484;48.736;9.332;2023-05-14T07:12:40;12.30;1.00
20650;DHT22;10484;48.736;9.332;2023-05-14T07:15:06;12.30;1.00
20650;DHT22;10484;48.736;9.332;2023-05-14T07:17:32;12.40;1.00
20650;DHT22;10484;48.736;9.332;2023-05-14T07:19:57;12.40;1.00
20650;DHT22;10484;48.736;9.332;2023-05-14T07:22:23;12.40;1.00
20650;DHT22;10484;48.736;9.332;2023-05-14T07:24:49;12.40;1.00
20650;DHT22;10484;48.736;9.332;2023-05-14T07:27:14;12.40;1.00
20650;DHT22;10484;48.736;9.332;2023-05-14T07:29:41;12.50;1.00
20650;DHT22;10484;48.736;9.332;2023-05-14T07:32:07;12.50;1.00
20650;DHT22;10484;48.736;9.332;2023-05-14T07:34:32;12.50;1.00
20650;DHT22;10484;48.736;9.332;2023-05-14T07:36:58;12.50;1.00
20650;DHT22;10484;48.736;9.332;2023-05-14T07:39:23;12.60;1.00
20650;DHT22;10484;48.736;9.332;2023-05-14T07:41:50;12.60;1.00
20650;DHT22;10484;48.736;9.332;2023-05-14T07:44:15;12.60;1.00
20650;DHT22;10484;48.736;9.332;2023-05-14T07:46:41;12.60;1.00
20650;DHT22;10484;48.736;9.332;2023-05-14T07:49:07;12.60;1.00
20650;DHT22;10484;48.736;9.332;2023-05-14T07:51:32;12.70;1.00
20650;DHT22;10484;48.736;9.332;2023-05-14T07:53:58;12.70;1.00
20650;DHT22;10484;48.736;9.332;2023-05-14T07:56:23;12.70;1.00
20650;DHT22;10484;48.736;9.332;2023-05-14T07:58:49;12.70;1.00
20650;DHT22;10484;48.736;9.332;2023-05-14T08:01:15;12.80;1.00
20650;DHT22;10484;48.736;9.332;2023-05-14T08:03:41;12.80;1.00
20650;DHT22;10484;48.736;9.332;2023-05-14T08:06:07;12.80;1.00
20650;DHT22;10484;48.736;9.332;2023-05-14T08:08:32;12.80;1.00
20650;DHT22;10484;48.736;9.332;2023-05-14T08:10:58;12.90;1.00
20650;DHT22;10484;48.736;9.332;2023-05-14T08:13:23;12.90;1.00
20650;DHT22;10484;48.736;9.332;2023-05-14T08:15:49;12.90;1.00
20650;DHT22;10484;48.736;9.332;2023-05-14T08:18:15;13.00;1.00
20650;DHT22;10484;48.736;9.332;2023-05-14T08:20:41;13.10;1.00
20650;DHT22;10484;48.736;9.332;2023-05-14T08:23:07;13.20;1.00
20650;DHT22;10484;48.736;9.332;2023-05-14T08:25:33;13.20;1.00
20650;DHT22;10484;48.736;9.332;2023-05-14T08:27:59;13.30;1.00
20650;DHT22;10484;48.736;9.332;2023-05-14T08:30:26;13.30;1.00
20650;DHT22;10484;48.736;9.332;2023-05-14T08:32:51;13.40;1.00
20650;DHT22;10484;48.736;9.332;2023-05-14T08:35:17;13.40;1.00
20650;DHT22;10484;48.736;9.332;2023-05-14T08:37:43;13.40;1.00
20650;DHT22;10484;48.736;9.332;2023-05-14T08:40:09;13.50;1.00
20650;DHT22;10484;48.736;9.332;2023-05-14T08:42:37;13.50;1.00
20650;DHT22;10484;48.736;9.332;2023-05-14T08:45:08;13.60;1.00
20650;DHT22;10484;48.736;9.332;2023-05-14T08:47:36;13.60;1.00
20650;DHT22;10484;48.736;9.332;2023-05-14T08:50:04;13.60;1.00
20650;DHT22;10484;48.736;9.332;2023-05-14T08:52:31;13.70;1.00
20650;DHT22;10484;48.736;9.332;2023-05-14T08:55:02;13.70;1.00
20650;DHT22;10484;48.736;9.332;2023-05-14T08:57:29;13.70;1.00
20650;DHT22;10484;48.736;9.332;2023-05-14T08:59:56;13.80;1.00
20650;DHT22;10484;48.736;9.332;2023-05-14T09:02:28;13.80;1.00
20650;DHT22;10484;48.736;9.332;2023-05-14T09:04:55;13.80;1.00
20650;DHT22;10484;48.736;9.332;2023-05-14T09:07:21;13.90;1.00
20650;DHT22;10484;48.736;9.332;2023-05-14T09:09:47;13.90;1.00
20650;DHT22;10484;48.736;9.332;2023-05-14T09:12:13;13.90;1.00
20650;DHT22;10484;48.736;9.332;2023-05-14T09:14:38;13.90;1.00
20650;DHT22;10484;48.736;9.332;2023-05-14T09:17:04;14.00;1.00
20650;DHT22;10484;48.736;9.332;2023-05-14T09:19:30;14.00;1.00
20650;DHT22;10484;48.736;9.332;2023-05-14T09:21:59;14.00;1.00
20650;DHT22;10484;48.736;9.332;2023-05-14T09:24:26;14.10;1.00
20650;DHT22;10484;48.736;9.332;2023-05-14T09:26:54;14.10;1.00
20650;DHT22;10484;48.736;9.332;2023-05-14T09:29:22;14.20;1.00
20650;DHT22;10484;48.736;9.332;2023-05-14T09:31:49;14.20;1.00
20650;DHT22;10484;48.736;9.332;2023-05-14T09:34:29;14.20;1.00
20650;DHT22;10484;48.736;9.332;2023-05-14T09:37:03;14.20;1.00
20650;DHT22;10484;48.736;9.332;2023-05-14T09:39:29;14.30;1.00
20650;DHT22;10484;48.736;9.332;2023-05-14T09:41:55;14.30;1.00
20650;DHT22;10484;48.736;9.332;2023-05-14T09:44:21;14.30;1.00
20650;DHT22;10484;48.736;9.332;2023-05-14T09:46:47;14.30;1.00
20650;DHT22;10484;48.736;9.332;2023-05-14T09:49:13;14.40;1.00
20650;DHT22;10484;48.736;9.332;2023-05-14T09:51:39;14.40;1.00
20650;DHT22;10484;48.736;9.332;2023-05-14T09:54:05;14.40;1.00
20650;DHT22;10484;48.736;9.332;2023-05-14T09:56:33;14.40;1.00
20650;DHT22;10484;48.736;9.332;2023-05-14T09:58:59;14.50;1.00
20650;DHT22;10484;48.736;9.332;2023-05-14T10:01:25;14.50;1.00
20650;DHT22;10484;48.736;9.332;2023-05-14T10:03:53;14.50;1.00
20650;DHT22;10484;48.736;9.332;2023-05-14T10:06:25;14.60;1.00
20650;DHT22;10484;48.736;9.332;2023-05-14T10:08:54;14.60;1.00
20650;DHT22;10484;48.736;9.332;2023-05-14T10:11:24;14.60;1.00
20650;DHT22;10484;48.736;9.332;2023-05-14T10:14:04;14.70;1.00
20650;DHT22;10484;48.736;9.332;2023-05-14T10:16:33;14.70;1.00
20650;DHT22;10484;48.736;9.332;2023-05-14T10:19:08;14.80;1.00
20650;DHT22;10484;48.736;9.332;2023-05-14T10:21:36;14.80;1.00
20650;DHT22;10484;48.736;9.332;2023-05-14T10:24:03;14.80;1.00
20650;DHT22;10484;48.736;9.332;2023-05-14T10:26:33;14.80;1.00
20650;DHT22;10484;48.736;9.332;2023-05-14T10:29:02;14.80;1.00
20650;DHT22;10484;48.736;9.332;2023-05-14T10:31:48;14.80;1.00
20650;DHT22;10484;48.736;9.332;2023-05-14T10:34:41;14.90;1.00
20650;DHT22;10484;48.736;9.332;2023-05-14T10:37:20;15.00;1.00
20650;DHT22;10484;48.736;9.332;2023-05-14T10:40:06;15.20;1.00
20650;DHT22;10484;48.736;9.332;2023-05-14T10:42:36;15.20;1.00
20650;DHT22;10484;48.736;9.332;2023-05-14T10:45:08;15.30;1.00
20650;DHT22;10484;48.736;9.332;2023-05-14T10:47:36;15.30;1.00
20650;DHT22;10484;48.736;9.332;2023-05-14T10:50:07;15.40;1.00
20650;DHT22;10484;48.736;9.332;2023-05-14T10:52:33;15.40;1.00
20650;DHT22;10484;48.736;9.332;2023-05-14T10:55:03;15.50;1.00
20650;DHT22;10484;48.736;9.332;2023-05-14T10:57:34;15.50;1.00
20650;DHT22;10484;48.736;9.332;2023-05-14T11:00:01;15.60;1.00
20650;DHT22;10484;48.736;9.332;2023-05-14T11:02:28;15.70;1.00
20650;DHT22;10484;48.736;9.332;2023-05-14T11:05:00;15.70;1.00
20650;DHT22;10484;48.736;9.332;2023-05-14T11:07:37;15.70;1.00
20650;DHT22;10484;48.736;9.332;2023-05-14T11:10:11;15.80;1.00
20650;DHT22;10484;48.736;9.332;2023-05-14T11:12:39;15.80;1.00
20650;DHT22;10484;48.736;9.332;2023-05-14T11:15:07;15.80;1.00
20650;DHT22;10484;48.736;9.332;2023-05-14T11:17:34;15.90;1.00
20650;DHT22;10484;48.736;9.332;2023-05-14T11:20:01;15.90;1.00
20650;DHT22;10484;48.736;9.332;2023-05-14T11:22:26;16.00;1.00
20650;DHT22;10484;48.736;9.332;2023-05-14T11:24:52;16.10;1.00
20650;DHT22;10484;48.736;9.332;2023-05-14T11:27:20;16.10;1.00
20650;DHT22;10484;48.736;9.332;2023-05-14T11:29:46;16.20;1.00
20650;DHT22;10484;48.736;9.332;2023-05-14T11:32:13;16.20;1.00
20650;DHT22;10484;48.736;9.332;2023-05-14T11:34:40;16.30;1.00
20650;DHT22;10484;48.736;9.332;2023-05-14T11:37:07;16.40;1.00
20650;DHT22;10484;48.736;9.332;2023-05-14T11:39:34;16.50;1.00
20650;DHT22;10484;48.736;9.332;2023-05-14T11:42:02;16.50;1.00
20650;DHT22;10484;48.736;9.332;2023-05-14T11:44:30;16.60;1.00
20650;DHT22;10484;48.736;9.332;2023-05-14T11:46:56;16.70;1.00
20650;DHT22;10484;48.736;9.332;2023-05-14T11:49:23;16.70;1.00
20650;DHT22;10484;48.736;9.332;2023-05-14T11:52:00;16.80;1.00
20650;DHT22;10484;48.736;9.332;2023-05-14T11:54:27;16.90;1.00
20650;DHT22;10484;48.736;9.332;2023-05-14T11:56:57;17.00;1.00
20650;DHT22;10484;48.736;9.332;2023-05-14T11:59:24;17.00;1.00
20650;DHT22;10484;48.736;9.332;2023-05-14T12:01:50;17.10;1.00
20650;DHT22;10484;48.736;9.332;2023-05-14T12:04:20;17.20;1.00
20650;DHT22;10484;48.736;9.332;2023-05-14T12:06:50;17.30;1.00
20650;DHT22;10484;48.736;9.332;2023-05-14T12:09:19;17.40;1.00
20650;DHT22;10484;48.736;9.332;2023-05-14T12:11:45;17.50;1.00
20650;DHT22;10484;48.736;9.332;2023-05-14T12:14:23;17.50;1.00
20650;DHT22;10484;48.736;9.332;2023-05-14T12:16:49;17.40;1.00
20650;DHT22;10484;48.736;9.332;2023-05-14T12:19:17;17.40;1.00
20650;DHT22;10484;48.736;9.332;2023-05-14T12:21:44;17.40;1.00
20650;DHT22;10484;48.736;9.332;2023-05-14T12:24:12;17.40;1.00
20650;DHT22;10484;48.736;9.332;2023-05-14T12:26:39;17.40;1.00
20650;DHT22;10484;48.736;9.332;2023-05-14T12:29:04;17.40;1.00
20650;DHT22;10484;48.736;9.332;2023-05-14T12:31:34;17.40;1.00
20650;DHT22;10484;48.736;9.332;2023-05-14T12:34:01;17.40;1.00
20650;DHT22;10484;48.736;9.332;2023-05-14T12:36:28;17.40;1.00
20650;DHT22;10484;48.736;9.332;2023-05-14T12:38:59;17.40;1.00
20650;DHT22;10484;48.736;9.332;2023-05-14T12:41:26;17.40;1.00
20650;DHT22;10484;48.736;9.332;2023-05-14T12:43:52;17.40;1.00
20650;DHT22;10484;48.736;9.332;2023-05-14T12:46:17;17.50;1.00
20650;DHT22;10484;48.736;9.332;2023-05-14T12:48:43;17.40;1.00
20650;DHT22;10484;48.736;9.332;2023-05-14T12:51:09;17.50;1.00
20650;DHT22;10484;48.736;9.332;2023-05-14T12:53:34;17.50;1.00
20650;DHT22;10484;48.736;9.332;2023-05-14T12:56:00;17.50;1.00
20650;DHT22;10484;48.736;9.332;2023-05-14T12:58:26;17.50;1.00
20650;DHT22;10484;48.736;9.332;2023-05-14T13:00:51;17.60;1.00
20650;DHT22;10484;48.736;9.332;2023-05-14T13:03:17;17.70;1.00
20650;DHT22;10484;48.736;9.332;2023-05-14T13:05:42;17.80;1.00
20650;DHT22;10484;48.736;9.332;2023-05-14T13:08:08;17.90;1.00
20650;DHT22;10484;48.736;9.332;2023-05-14T13:10:34;17.80;1.00
20650;DHT22;10484;48.736;9.332;2023-05-14T13:12:59;17.80;1.00
20650;DHT22;10484;48.736;9.332;2023-05-14T13:15:27;17.70;1.00
20650;DHT22;10484;48.736;9.332;2023-05-14T13:17:52;17.70;1.00
20650;DHT22;10484;48.736;9.332;2023-05-14T13:20:18;17.60;1.00
20650;DHT22;10484;48.736;9.332;2023-05-14T13:22:43;17.60;1.00
20650;DHT22;10484;48.736;9.332;2023-05-14T13:25:09;17.60;1.00
20650;DHT22;10484;48.736;9.332;2023-05-14T13:27:35;17.60;1.00
20650;DHT22;10484;48.736;9.332;2023-05-14T13:30:04;17.50;1.00
20650;DHT22;10484;48.736;9.332;2023-05-14T13:32:30;17.50;1.00
20650;DHT22;10484;48.736;9.332;2023-05-14T13:34:55;17.50;1.00
20650;DHT22;10484;48.736;9.332;2023-05-14T13:37:21;17.60;1.00
20650;DHT22;10484;48.736;9.332;2023-05-14T13:39:47;17.60;1.00
20650;DHT22;10484;48.736;9.332;2023-05-14T13:42:12;17.70;1.00
20650;DHT22;10484;48.736;9.332;2023-05-14T13:44:38;17.90;1.00
20650;DHT22;10484;48.736;9.332;2023-05-14T13:47:04;18.00;1.00
20650;DHT22;10484;48.736;9.332;2023-05-14T13:49:29;18.10;1.00
20650;DHT22;10484;48.736;9.332;2023-05-14T13:51:55;18.20;1.00
20650;DHT22;10484;48.736;9.332;2023-05-14T13:54:21;18.20;1.00
20650;DHT22;10484;48.736;9.332;2023-05-14T13:56:46;18.30;1.00
20650;DHT22;10484;48.736;9.332;2023-05-14T13:59:12;18.30;1.00
20650;DHT22;10484;48.736;9.332;2023-05-14T14:01:37;18.40;1.00
20650;DHT22;10484;48.736;9.332;2023-05-14T14:04:03;18.40;1.00
20650;DHT22;10484;48.736;9.332;2023-05-14T14:06:30;18.50;1.00
20650;DHT22;10484;48.736;9.332;2023-05-14T14:08:56;18.60;1.00
20650;DHT22;10484;48.736;9.332;2023-05-14T14:11:22;18.60;1.00
20650;DHT22;10484;48.736;9.332;2023-05-14T14:13:48;18.70;1.00
20650;DHT22;10484;48.736;9.332;2023-05-14T14:16:13;18.70;1.00
20650;DHT22;10484;48.736;9.332;2023-05-14T14:18:40;18.70;1.00
20650;DHT22;10484;48.736;9.332;2023-05-14T14:21:07;18.70;1.00
20650;DHT22;10484;48.736;9.332;2023-05-14T14:23:33;18.70;1.00
20650;DHT22;10484;48.736;9.332;2023-05-14T14:25:59;18.70;1.00
20650;DHT22;10484;48.736;9.332;2023-05-14T14:28:25;18.70;1.00
20650;DHT22;10484;48.736;9.332;2023-05-14T14:30:50;18.70;1.00
20650;DHT22;10484;48.736;9.332;2023-05-14T14:33:16;18.70;1.00
20650;DHT22;10484;48.736;9.332;2023-05-14T14:35:41;18.60;1.00
20650;DHT22;10484;48.736;9.332;2023-05-14T14:38:07;18.60;1.00
20650;DHT22;10484;48.736;9.332;2023-05-14T14:40:33;18.40;1.00
20650;DHT22;10484;48.736;9.332;2023-05-14T14:42:59;18.40;1.00
20650;DHT22;10484;48.736;9.332;2023-05-14T14:45:24;18.40;1.00
20650;DHT22;10484;48.736;9.332;2023-05-14T14:47:50;18.30;1.00
20650;DHT22;10484;48.736;9.332;2023-05-14T14:50:16;18.30;1.00
20650;DHT22;10484;48.736;9.332;2023-05-14T14:52:41;18.20;1.00
20650;DHT22;10484;48.736;9.332;2023-05-14T14:55:08;18.20;1.00
20650;DHT22;10484;48.736;9.332;2023-05-14T14:57:34;18.20;1.00
20650;DHT22;10484;48.736;9.332;2023-05-14T15:00:00;18.20;1.00
20650;DHT22;10484;48.736;9.332;2023-05-14T15:02:26;18.30;1.00
20650;DHT22;10484;48.736;9.332;2023-05-14T15:04:52;18.30;1.00
20650;DHT22;10484;48.736;9.332;2023-05-14T15:07:18;18.30;1.00
20650;DHT22;10484;48.736;9.332;2023-05-14T15:09:46;18.30;1.00
20650;DHT22;10484;48.736;9.332;2023-05-14T15:12:12;18.30;1.00
20650;DHT22;10484;48.736;9.332;2023-05-14T15:14:38;18.40;1.00
20650;DHT22;10484;48.736;9.332;2023-05-14T15:17:04;18.40;1.00
20650;DHT22;10484;48.736;9.332;2023-05-14T15:19:29;18.40;1.00
20650;DHT22;10484;48.736;9.332;2023-05-14T15:21:56;18.30;1.00
20650;DHT22;10484;48.736;9.332;2023-05-14T15:24:22;18.20;1.00
20650;DHT22;10484;48.736;9.332;2023-05-14T15:26:49;18.20;1.00
20650;DHT22;10484;48.736;9.332;2023-05-14T15:29:15;18.10;1.00
20650;DHT22;10484;48.736;9.332;2023-05-14T15:31:40;18.10;1.00
20650;DHT22;10484;48.736;9.332;2023-05-14T15:34:06;18.20;1.00
20650;DHT22;10484;48.736;9.332;2023-05-14T15:36:31;18.10;1.00
20650;DHT22;10484;48.736;9.332;2023-05-14T15:38:58;18.00;1.00
20650;DHT22;10484;48.736;9.332;2023-05-14T15:41:24;18.00;1.00
20650;DHT22;10484;48.736;9.332;2023-05-14T15:43:50;18.10;1.00
20650;DHT22;10484;48.736;9.332;2023-05-14T15:46:16;18.10;1.00
20650;DHT22;10484;48.736;9.332;2023-05-14T15:48:41;18.10;1.00
20650;DHT22;10484;48.736;9.332;2023-05-14T15:51:07;18.10;1.00